CheckWX is a tool to help pilots better visualize weather data.  It is not intended as a substitute for an official pre-flight weather briefing.

03:50:21 UTC

KIAH METAR
George Bush Intercontinental / Houston Airport
Houston, Texas, USA
Current

57 mins ago

KIAH 220253Z 16008KT 10SM FEW020 FEW180 BKN250 28/24 A2995 RMK AO2 SLP139 T02830239 53005
Observed
Jul-22 @ 02:53 UTC
Wind
  • 160° at 8 KTS
Visibility
10 SM
Flight Rules
VFR
Cloud Levels
  • Few at 2,000' AGL
  • Few at 18,000' AGL
  • Broken at 25,000' AGL
Temperature
28°C / 82°F
Dewpoint
24°C / 75°F
Heat Index
32°C / 89°F
Humidity
79%
Altimeter
29.95" Hg
Pressure
1014.22 hPa
Previous

2 hours ago

KIAH 220153Z 16006KT 10SM SCT180 BKN250 28/24 A2993 RMK AO2 SLP134 T02830244
Observed
Jul-22 @ 01:53 UTC
Wind
  • 160° at 6 KTS
Visibility
10 SM
Flight Rules
VFR
Cloud Levels
  • Scattered at 18,000' AGL
  • Broken at 25,000' AGL
Temperature
28°C / 82°F
Dewpoint
24°C / 75°F
Heat Index
32°C / 89°F
Humidity
79%
Altimeter
29.93" Hg
Pressure
1013.52 hPa
Previous

3 hours ago

KIAH 220053Z 12006KT 10SM FEW030 BKN170 OVC250 29/26 A2993 RMK AO2 SLP135 T02940256
Observed
Jul-22 @ 00:53 UTC
Wind
  • 120° at 6 KTS
Visibility
10 SM
Flight Rules
VFR
Cloud Levels
  • Few at 3,000' AGL
  • Broken at 17,000' AGL
  • Overcast at 25,000' AGL
Temperature
29°C / 84°F
Dewpoint
26°C / 79°F
Heat Index
36°C / 96°F
Humidity
84%
Altimeter
29.93" Hg
Pressure
1013.52 hPa